sensor_id;sensor_type;location;lat;lon;timestamp;pressure;altitude;pressure_sealevel;temperature;humidity
61488;BME280;47351;53.326;-6.298;2022-07-29T00:00:11;101479.13;;;15.06;73.44
61488;BME280;47351;53.326;-6.298;2022-07-29T00:02:46;101481.60;;;15.05;73.32
61488;BME280;47351;53.326;-6.298;2022-07-29T00:05:17;101483.64;;;15.06;73.21
61488;BME280;47351;53.326;-6.298;2022-07-29T00:07:49;101481.73;;;15.07;73.24
61488;BME280;47351;53.326;-6.298;2022-07-29T00:10:21;101484.55;;;15.10;72.94
61488;BME280;47351;53.326;-6.298;2022-07-29T00:12:52;101487.20;;;15.12;72.90
61488;BME280;47351;53.326;-6.298;2022-07-29T00:15:24;101488.80;;;15.15;72.77
61488;BME280;47351;53.326;-6.298;2022-07-29T00:17:56;101488.38;;;15.18;72.87
61488;BME280;47351;53.326;-6.298;2022-07-29T00:20:28;101489.08;;;15.21;72.50
61488;BME280;47351;53.326;-6.298;2022-07-29T00:23:07;101489.52;;;15.22;72.29
61488;BME280;47351;53.326;-6.298;2022-07-29T00:25:42;101491.16;;;15.21;72.15
61488;BME280;47351;53.326;-6.298;2022-07-29T00:28:16;101487.70;;;15.22;72.14
61488;BME280;47351;53.326;-6.298;2022-07-29T00:30:47;101489.04;;;15.24;71.78
61488;BME280;47351;53.326;-6.298;2022-07-29T00:33:20;101490.17;;;15.25;71.70
61488;BME280;47351;53.326;-6.298;2022-07-29T00:35:52;101489.55;;;15.28;71.61
61488;BME280;47351;53.326;-6.298;2022-07-29T00:38:27;101488.42;;;15.32;71.45
61488;BME280;47351;53.326;-6.298;2022-07-29T00:40:59;101485.23;;;15.33;71.05
61488;BME280;47351;53.326;-6.298;2022-07-29T00:43:30;101487.78;;;15.34;70.90
61488;BME280;47351;53.326;-6.298;2022-07-29T00:46:02;101483.39;;;15.35;70.87
61488;BME280;47351;53.326;-6.298;2022-07-29T00:48:33;101484.89;;;15.33;70.45
61488;BME280;47351;53.326;-6.298;2022-07-29T00:51:07;101479.29;;;15.31;70.44
61488;BME280;47351;53.326;-6.298;2022-07-29T00:53:40;101475.25;;;15.30;70.21
61488;BME280;47351;53.326;-6.298;2022-07-29T00:56:12;101473.08;;;15.32;70.30
61488;BME280;47351;53.326;-6.298;2022-07-29T00:58:44;101470.75;;;15.34;70.27
61488;BME280;47351;53.326;-6.298;2022-07-29T01:01:25;101469.67;;;15.35;70.21
61488;BME280;47351;53.326;-6.298;2022-07-29T01:04:08;101467.42;;;15.36;70.19
61488;BME280;47351;53.326;-6.298;2022-07-29T01:06:40;101462.61;;;15.39;70.27
61488;BME280;47351;53.326;-6.298;2022-07-29T01:09:11;101462.52;;;15.41;70.35
61488;BME280;47351;53.326;-6.298;2022-07-29T01:12:05;101459.61;;;15.43;70.24
61488;BME280;47351;53.326;-6.298;2022-07-29T01:14:37;101461.91;;;15.43;70.19
61488;BME280;47351;53.326;-6.298;2022-07-29T01:17:12;101462.14;;;15.44;69.93
61488;BME280;47351;53.326;-6.298;2022-07-29T01:20:00;101462.25;;;15.45;70.24
61488;BME280;47351;53.326;-6.298;2022-07-29T01:22:42;101456.35;;;15.45;70.03
61488;BME280;47351;53.326;-6.298;2022-07-29T01:25:36;101460.92;;;15.46;70.03
61488;BME280;47351;53.326;-6.298;2022-07-29T01:28:58;101465.14;;;15.48;70.16
61488;BME280;47351;53.326;-6.298;2022-07-29T01:31:45;101460.73;;;15.51;70.07
61488;BME280;47351;53.326;-6.298;2022-07-29T01:34:41;101461.37;;;15.53;69.83
61488;BME280;47351;53.326;-6.298;2022-07-29T01:37:23;101462.08;;;15.55;69.80
61488;BME280;47351;53.326;-6.298;2022-07-29T01:39:57;101466.66;;;15.57;69.94
61488;BME280;47351;53.326;-6.298;2022-07-29T01:42:35;101462.98;;;15.60;69.63
61488;BME280;47351;53.326;-6.298;2022-07-29T01:45:14;101462.81;;;15.61;69.47
61488;BME280;47351;53.326;-6.298;2022-07-29T01:48:13;101464.80;;;15.61;69.13
61488;BME280;47351;53.326;-6.298;2022-07-29T01:50:50;101468.78;;;15.59;69.06
61488;BME280;47351;53.326;-6.298;2022-07-29T01:53:37;101470.48;;;15.58;69.03
61488;BME280;47351;53.326;-6.298;2022-07-29T01:56:13;101468.41;;;15.59;68.87
61488;BME280;47351;53.326;-6.298;2022-07-29T01:59:09;101467.66;;;15.59;68.96
61488;BME280;47351;53.326;-6.298;2022-07-29T02:01:53;101466.55;;;15.61;68.95
61488;BME280;47351;53.326;-6.298;2022-07-29T02:04:27;101467.86;;;15.63;68.93
61488;BME280;47351;53.326;-6.298;2022-07-29T02:07:03;101470.45;;;15.65;69.15
61488;BME280;47351;53.326;-6.298;2022-07-29T02:09:37;101466.27;;;15.67;69.17
61488;BME280;47351;53.326;-6.298;2022-07-29T02:12:10;101469.16;;;15.69;69.21
61488;BME280;47351;53.326;-6.298;2022-07-29T02:14:45;101472.30;;;15.70;69.27
61488;BME280;47351;53.326;-6.298;2022-07-29T02:17:27;101474.86;;;15.69;69.28
61488;BME280;47351;53.326;-6.298;2022-07-29T02:20:03;101471.52;;;15.67;69.42
61488;BME280;47351;53.326;-6.298;2022-07-29T02:22:37;101469.21;;;15.66;69.71
61488;BME280;47351;53.326;-6.298;2022-07-29T02:25:10;101466.87;;;15.68;70.01
61488;BME280;47351;53.326;-6.298;2022-07-29T02:27:59;101465.59;;;15.70;70.22
61488;BME280;47351;53.326;-6.298;2022-07-29T02:30:31;101460.48;;;15.71;70.29
61488;BME280;47351;53.326;-6.298;2022-07-29T02:33:05;101463.48;;;15.73;70.47
61488;BME280;47351;53.326;-6.298;2022-07-29T02:35:42;101463.23;;;15.75;70.73
61488;BME280;47351;53.326;-6.298;2022-07-29T02:38:18;101461.06;;;15.79;70.75
61488;BME280;47351;53.326;-6.298;2022-07-29T02:41:17;101460.38;;;15.81;71.03
61488;BME280;47351;53.326;-6.298;2022-07-29T02:43:53;101455.45;;;15.84;71.11
61488;BME280;47351;53.326;-6.298;2022-07-29T02:46:29;101455.65;;;15.85;71.03
61488;BME280;47351;53.326;-6.298;2022-07-29T02:49:07;101455.23;;;15.85;70.94
61488;BME280;47351;53.326;-6.298;2022-07-29T02:51:45;101457.95;;;15.85;70.87
61488;BME280;47351;53.326;-6.298;2022-07-29T02:54:25;101454.20;;;15.85;70.77
61488;BME280;47351;53.326;-6.298;2022-07-29T02:57:04;101455.21;;;15.84;70.53
61488;BME280;47351;53.326;-6.298;2022-07-29T02:59:38;101457.82;;;15.82;70.58
61488;BME280;47351;53.326;-6.298;2022-07-29T03:02:15;101458.67;;;15.81;70.74
61488;BME280;47351;53.326;-6.298;2022-07-29T03:04:48;101458.46;;;15.83;70.66
61488;BME280;47351;53.326;-6.298;2022-07-29T03:07:21;101457.77;;;15.84;70.84
61488;BME280;47351;53.326;-6.298;2022-07-29T03:10:01;101460.83;;;15.84;70.43
61488;BME280;47351;53.326;-6.298;2022-07-29T03:12:33;101463.14;;;15.84;70.51
61488;BME280;47351;53.326;-6.298;2022-07-29T03:15:06;101466.23;;;15.85;70.38
61488;BME280;47351;53.326;-6.298;2022-07-29T03:17:43;101467.80;;;15.86;70.40
61488;BME280;47351;53.326;-6.298;2022-07-29T03:20:15;101468.23;;;15.87;70.38
61488;BME280;47351;53.326;-6.298;2022-07-29T03:22:47;101471.25;;;15.89;70.17
61488;BME280;47351;53.326;-6.298;2022-07-29T03:25:22;101476.25;;;15.87;70.15
61488;BME280;47351;53.326;-6.298;2022-07-29T03:27:53;101475.05;;;15.87;70.32
61488;BME280;47351;53.326;-6.298;2022-07-29T03:30:26;101475.38;;;15.87;70.30
61488;BME280;47351;53.326;-6.298;2022-07-29T03:33:07;101477.33;;;15.87;70.72
61488;BME280;47351;53.326;-6.298;2022-07-29T03:35:42;101479.16;;;15.87;70.91
61488;BME280;47351;53.326;-6.298;2022-07-29T03:38:14;101481.39;;;15.85;71.18
61488;BME280;47351;53.326;-6.298;2022-07-29T03:41:00;101485.29;;;15.82;71.34
61488;BME280;47351;53.326;-6.298;2022-07-29T03:43:36;101483.64;;;15.79;71.66
61488;BME280;47351;53.326;-6.298;2022-07-29T03:46:19;101487.90;;;15.75;71.80
61488;BME280;47351;53.326;-6.298;2022-07-29T03:48:55;101482.90;;;15.70;71.97
61488;BME280;47351;53.326;-6.298;2022-07-29T03:51:28;101483.38;;;15.64;72.31
61488;BME280;47351;53.326;-6.298;2022-07-29T03:54:04;101481.05;;;15.60;72.70
61488;BME280;47351;53.326;-6.298;2022-07-29T03:56:45;101479.61;;;15.57;73.18
61488;BME280;47351;53.326;-6.298;2022-07-29T03:59:18;101481.14;;;15.57;73.26
61488;BME280;47351;53.326;-6.298;2022-07-29T04:01:57;101481.52;;;15.55;73.54
61488;BME280;47351;53.326;-6.298;2022-07-29T04:04:29;101486.16;;;15.53;73.68
61488;BME280;47351;53.326;-6.298;2022-07-29T04:07:03;101489.05;;;15.52;73.90
61488;BME280;47351;53.326;-6.298;2022-07-29T04:09:35;101485.30;;;15.51;74.01
61488;BME280;47351;53.326;-6.298;2022-07-29T04:12:07;101489.88;;;15.52;74.32
61488;BME280;47351;53.326;-6.298;2022-07-29T04:14:39;101489.44;;;15.53;74.45
61488;BME280;47351;53.326;-6.298;2022-07-29T04:17:10;101492.98;;;15.54;74.48
61488;BME280;47351;53.326;-6.298;2022-07-29T04:19:42;101489.23;;;15.53;74.55
61488;BME280;47351;53.326;-6.298;2022-07-29T04:22:13;101489.16;;;15.54;74.54
61488;BME280;47351;53.326;-6.298;2022-07-29T04:24:45;101491.10;;;15.55;74.52
61488;BME280;47351;53.326;-6.298;2022-07-29T04:27:16;101489.71;;;15.55;74.75
61488;BME280;47351;53.326;-6.298;2022-07-29T04:29:52;101490.48;;;15.57;74.90
61488;BME280;47351;53.326;-6.298;2022-07-29T04:32:26;101490.73;;;15.58;74.93
61488;BME280;47351;53.326;-6.298;2022-07-29T04:34:58;101492.51;;;15.59;74.97
61488;BME280;47351;53.326;-6.298;2022-07-29T04:37:29;101490.95;;;15.61;75.07
61488;BME280;47351;53.326;-6.298;2022-07-29T04:40:08;101492.60;;;15.62;75.39
61488;BME280;47351;53.326;-6.298;2022-07-29T04:42:40;101492.48;;;15.63;75.36
61488;BME280;47351;53.326;-6.298;2022-07-29T04:45:18;101490.45;;;15.63;75.47
61488;BME280;47351;53.326;-6.298;2022-07-29T04:47:51;101488.27;;;15.63;75.34
61488;BME280;47351;53.326;-6.298;2022-07-29T04:50:25;101489.92;;;15.63;75.26
61488;BME280;47351;53.326;-6.298;2022-07-29T04:52:57;101483.61;;;15.63;75.55
61488;BME280;47351;53.326;-6.298;2022-07-29T04:55:49;101484.33;;;15.63;75.51
61488;BME280;47351;53.326;-6.298;2022-07-29T04:58:21;101488.38;;;15.64;75.66
61488;BME280;47351;53.326;-6.298;2022-07-29T05:00:54;101489.01;;;15.65;75.59
61488;BME280;47351;53.326;-6.298;2022-07-29T05:03:25;101482.13;;;15.65;75.52
61488;BME280;47351;53.326;-6.298;2022-07-29T05:06:02;101482.02;;;15.66;75.67
61488;BME280;47351;53.326;-6.298;2022-07-29T05:08:36;101480.39;;;15.68;75.65
61488;BME280;47351;53.326;-6.298;2022-07-29T05:11:18;101476.02;;;15.70;75.81
61488;BME280;47351;53.326;-6.298;2022-07-29T05:13:53;101471.67;;;15.72;75.79
61488;BME280;47351;53.326;-6.298;2022-07-29T05:16:25;101473.16;;;15.74;75.78
61488;BME280;47351;53.326;-6.298;2022-07-29T05:18:57;101480.92;;;15.76;75.88
61488;BME280;47351;53.326;-6.298;2022-07-29T05:21:29;101480.14;;;15.77;75.56
61488;BME280;47351;53.326;-6.298;2022-07-29T05:24:11;101481.71;;;15.75;75.42
61488;BME280;47351;53.326;-6.298;2022-07-29T05:26:45;101481.83;;;15.74;75.50
61488;BME280;47351;53.326;-6.298;2022-07-29T05:29:16;101485.27;;;15.74;75.66
61488;BME280;47351;53.326;-6.298;2022-07-29T05:32:07;101485.89;;;15.73;75.83
61488;BME280;47351;53.326;-6.298;2022-07-29T05:34:39;101486.08;;;15.75;76.00
61488;BME280;47351;53.326;-6.298;2022-07-29T05:37:24;101487.26;;;15.78;76.09
61488;BME280;47351;53.326;-6.298;2022-07-29T05:39:55;101487.73;;;15.78;75.95
61488;BME280;47351;53.326;-6.298;2022-07-29T05:42:28;101491.47;;;15.79;75.97
61488;BME280;47351;53.326;-6.298;2022-07-29T05:44:59;101490.59;;;15.78;75.81
61488;BME280;47351;53.326;-6.298;2022-07-29T05:47:34;101485.23;;;15.81;76.03
61488;BME280;47351;53.326;-6.298;2022-07-29T05:50:07;101485.95;;;15.86;76.17
61488;BME280;47351;53.326;-6.298;2022-07-29T05:52:42;101490.86;;;15.92;75.95
61488;BME280;47351;53.326;-6.298;2022-07-29T05:55:14;101498.47;;;15.96;76.04
61488;BME280;47351;53.326;-6.298;2022-07-29T05:57:45;101499.84;;;16.00;76.09
61488;BME280;47351;53.326;-6.298;2022-07-29T06:00:27;101496.79;;;16.05;76.20
61488;BME280;47351;53.326;-6.298;2022-07-29T06:03:19;101494.05;;;16.13;76.40
61488;BME280;47351;53.326;-6.298;2022-07-29T06:06:04;101491.30;;;16.22;76.37
61488;BME280;47351;53.326;-6.298;2022-07-29T06:08:37;101484.84;;;16.32;76.43
61488;BME280;47351;53.326;-6.298;2022-07-29T06:11:12;101488.69;;;16.41;76.20
61488;BME280;47351;53.326;-6.298;2022-07-29T06:13:48;101487.02;;;16.47;76.14
61488;BME280;47351;53.326;-6.298;2022-07-29T06:16:22;101490.93;;;16.54;76.14
61488;BME280;47351;53.326;-6.298;2022-07-29T06:18:59;101495.25;;;16.57;75.71
61488;BME280;47351;53.326;-6.298;2022-07-29T06:21:33;101491.36;;;16.61;75.78
61488;BME280;47351;53.326;-6.298;2022-07-29T06:24:08;101487.90;;;16.67;75.64
61488;BME280;47351;53.326;-6.298;2022-07-29T06:26:59;101484.27;;;16.73;75.27
61488;BME280;47351;53.326;-6.298;2022-07-29T06:29:31;101485.10;;;16.75;74.93
61488;BME280;47351;53.326;-6.298;2022-07-29T06:32:04;101489.52;;;16.77;74.99
61488;BME280;47351;53.326;-6.298;2022-07-29T06:34:38;101494.48;;;16.79;74.93
61488;BME280;47351;53.326;-6.298;2022-07-29T06:37:35;101491.88;;;16.85;74.87
61488;BME280;47351;53.326;-6.298;2022-07-29T06:40:12;101502.09;;;16.90;74.62
61488;BME280;47351;53.326;-6.298;2022-07-29T06:43:01;101500.95;;;16.98;74.54
61488;BME280;47351;53.326;-6.298;2022-07-29T06:45:47;101496.73;;;17.03;74.16
61488;BME280;47351;53.326;-6.298;2022-07-29T06:48:18;101498.26;;;17.08;73.95
61488;BME280;47351;53.326;-6.298;2022-07-29T06:50:59;101499.94;;;17.12;73.46
61488;BME280;47351;53.326;-6.298;2022-07-29T06:53:51;101503.08;;;17.18;73.03
61488;BME280;47351;53.326;-6.298;2022-07-29T06:56:34;101503.19;;;17.25;72.79
61488;BME280;47351;53.326;-6.298;2022-07-29T06:59:10;101501.64;;;17.32;72.63
61488;BME280;47351;53.326;-6.298;2022-07-29T07:01:43;101502.12;;;17.35;72.12
61488;BME280;47351;53.326;-6.298;2022-07-29T07:04:27;101510.19;;;17.37;71.88
61488;BME280;47351;53.326;-6.298;2022-07-29T07:06:59;101508.79;;;17.41;71.88
61488;BME280;47351;53.326;-6.298;2022-07-29T07:09:40;101503.86;;;17.46;71.72
61488;BME280;47351;53.326;-6.298;2022-07-29T07:12:11;101502.55;;;17.50;71.39
61488;BME280;47351;53.326;-6.298;2022-07-29T07:14:43;101506.29;;;17.51;71.07
61488;BME280;47351;53.326;-6.298;2022-07-29T07:17:18;101503.83;;;17.54;71.04
61488;BME280;47351;53.326;-6.298;2022-07-29T07:20:11;101508.55;;;17.58;70.84
61488;BME280;47351;53.326;-6.298;2022-07-29T07:22:45;101516.15;;;17.64;70.61
61488;BME280;47351;53.326;-6.298;2022-07-29T07:25:20;101510.73;;;17.73;70.72
61488;BME280;47351;53.326;-6.298;2022-07-29T07:27:51;101510.88;;;17.81;70.27
61488;BME280;47351;53.326;-6.298;2022-07-29T07:30:23;101513.83;;;17.85;69.95
61488;BME280;47351;53.326;-6.298;2022-07-29T07:32:56;101514.88;;;17.91;69.98
61488;BME280;47351;53.326;-6.298;2022-07-29T07:35:28;101517.30;;;18.01;69.95
61488;BME280;47351;53.326;-6.298;2022-07-29T07:37:59;101514.93;;;18.12;69.85
61488;BME280;47351;53.326;-6.298;2022-07-29T07:40:34;101520.99;;;18.25;69.93
61488;BME280;47351;53.326;-6.298;2022-07-29T07:43:15;101518.59;;;18.39;69.60
61488;BME280;47351;53.326;-6.298;2022-07-29T07:45:46;101518.16;;;18.50;69.28
61488;BME280;47351;53.326;-6.298;2022-07-29T07:48:21;101522.11;;;18.59;68.63
61488;BME280;47351;53.326;-6.298;2022-07-29T07:50:52;101525.05;;;18.67;68.46
61488;BME280;47351;53.326;-6.298;2022-07-29T07:53:24;101526.14;;;18.77;68.06
61488;BME280;47351;53.326;-6.298;2022-07-29T07:55:55;101526.95;;;18.88;67.72
61488;BME280;47351;53.326;-6.298;2022-07-29T07:58:45;101522.14;;;18.97;67.09
61488;BME280;47351;53.326;-6.298;2022-07-29T08:01:17;101522.67;;;19.05;66.67
61488;BME280;47351;53.326;-6.298;2022-07-29T08:03:51;101523.06;;;19.12;66.38
61488;BME280;47351;53.326;-6.298;2022-07-29T08:06:25;101525.05;;;19.19;66.22
61488;BME280;47351;53.326;-6.298;2022-07-29T08:08:57;101529.33;;;19.26;65.89
61488;BME280;47351;53.326;-6.298;2022-07-29T08:11:48;101530.64;;;19.36;65.78
61488;BME280;47351;53.326;-6.298;2022-07-29T08:14:21;101531.02;;;19.46;65.53
61488;BME280;47351;53.326;-6.298;2022-07-29T08:16:52;101524.61;;;19.56;65.41
61488;BME280;47351;53.326;-6.298;2022-07-29T08:19:24;101525.41;;;19.67;65.08
61488;BME280;47351;53.326;-6.298;2022-07-29T08:21:55;101517.92;;;19.70;64.33
61488;BME280;47351;53.326;-6.298;2022-07-29T08:24:27;101515.30;;;19.71;63.89
61488;BME280;47351;53.326;-6.298;2022-07-29T08:27:23;101513.14;;;19.78;63.96
61488;BME280;47351;53.326;-6.298;2022-07-29T08:30:12;101509.33;;;19.85;63.40
61488;BME280;47351;53.326;-6.298;2022-07-29T08:32:44;101503.55;;;19.92;63.12
61488;BME280;47351;53.326;-6.298;2022-07-29T08:35:25;101501.65;;;20.12;63.10
61488;BME280;47351;53.326;-6.298;2022-07-29T08:38:02;101502.66;;;20.34;62.35
61488;BME280;47351;53.326;-6.298;2022-07-29T08:40:33;101497.60;;;20.53;61.58
61488;BME280;47351;53.326;-6.298;2022-07-29T08:43:08;101495.84;;;20.79;61.05
61488;BME280;47351;53.326;-6.298;2022-07-29T08:45:45;101487.73;;;21.16;60.40
61488;BME280;47351;53.326;-6.298;2022-07-29T08:48:21;101479.31;;;21.67;59.68
61488;BME280;47351;53.326;-6.298;2022-07-29T08:50:55;101477.64;;;22.19;58.31
61488;BME280;47351;53.326;-6.298;2022-07-29T08:53:28;101474.52;;;22.65;56.83
61488;BME280;47351;53.326;-6.298;2022-07-29T08:56:00;101471.07;;;23.06;56.06
61488;BME280;47351;53.326;-6.298;2022-07-29T08:58:33;101471.73;;;23.54;55.31
61488;BME280;47351;53.326;-6.298;2022-07-29T09:01:08;101475.42;;;23.72;54.50
61488;BME280;47351;53.326;-6.298;2022-07-29T09:03:44;101482.98;;;24.31;53.79
61488;BME280;47351;53.326;-6.298;2022-07-29T09:06:19;101471.55;;;26.03;51.94
61488;BME280;47351;53.326;-6.298;2022-07-29T09:08:52;101461.95;;;26.94;49.44
61488;BME280;47351;53.326;-6.298;2022-07-29T09:11:24;101459.59;;;27.56;47.83
61488;BME280;47351;53.326;-6.298;2022-07-29T09:13:56;101466.28;;;28.21;47.06
61488;BME280;47351;53.326;-6.298;2022-07-29T09:16:27;101471.46;;;28.52;46.03
61488;BME280;47351;53.326;-6.298;2022-07-29T09:19:24;101467.27;;;28.47;45.38
61488;BME280;47351;53.326;-6.298;2022-07-29T09:21:57;101468.81;;;28.58;44.80
61488;BME280;47351;53.326;-6.298;2022-07-29T09:24:42;101461.48;;;29.13;43.57
61488;BME280;47351;53.326;-6.298;2022-07-29T09:27:20;101458.30;;;30.44;42.15
61488;BME280;47351;53.326;-6.298;2022-07-29T09:30:00;101455.80;;;31.78;40.47
61488;BME280;47351;53.326;-6.298;2022-07-29T09:32:32;101456.59;;;32.26;39.07
61488;BME280;47351;53.326;-6.298;2022-07-29T09:35:18;101464.91;;;32.79;37.29
61488;BME280;47351;53.326;-6.298;2022-07-29T09:37:51;101465.25;;;33.12;36.84
61488;BME280;47351;53.326;-6.298;2022-07-29T09:40:23;101462.05;;;34.58;35.39
61488;BME280;47351;53.326;-6.298;2022-07-29T09:42:56;101454.02;;;35.85;32.92
61488;BME280;47351;53.326;-6.298;2022-07-29T09:45:32;101459.01;;;36.74;32.55
61488;BME280;47351;53.326;-6.298;2022-07-29T09:48:15;101456.96;;;36.64;32.59
61488;BME280;47351;53.326;-6.298;2022-07-29T09:50:47;101459.08;;;35.40;33.06
61488;BME280;47351;53.326;-6.298;2022-07-29T09:53:33;101457.05;;;34.11;33.75
61488;BME280;47351;53.326;-6.298;2022-07-29T09:56:06;101465.75;;;32.85;34.25
61488;BME280;47351;53.326;-6.298;2022-07-29T09:58:41;101458.33;;;31.81;35.07
61488;BME280;47351;53.326;-6.298;2022-07-29T10:01:13;101457.79;;;31.01;35.71
61488;BME280;47351;53.326;-6.298;2022-07-29T10:03:55;101453.60;;;30.33;36.27
61488;BME280;47351;53.326;-6.298;2022-07-29T10:06:26;101453.23;;;29.95;36.36
61488;BME280;47351;53.326;-6.298;2022-07-29T10:09:08;101451.86;;;29.09;37.24
61488;BME280;47351;53.326;-6.298;2022-07-29T10:11:40;101455.39;;;28.22;38.47
61488;BME280;47351;53.326;-6.298;2022-07-29T10:14:19;101453.29;;;27.50;39.52
61488;BME280;47351;53.326;-6.298;2022-07-29T10:16:50;101452.51;;;26.85;40.22
61488;BME280;47351;53.326;-6.298;2022-07-29T10:19:22;101453.05;;;26.17;40.99
61488;BME280;47351;53.326;-6.298;2022-07-29T10:21:53;101456.84;;;25.62;41.87
61488;BME280;47351;53.326;-6.298;2022-07-29T10:24:28;101457.70;;;25.17;42.84
61488;BME280;47351;53.326;-6.298;2022-07-29T10:27:01;101458.19;;;24.90;43.29
61488;BME280;47351;53.326;-6.298;2022-07-29T10:29:33;101462.68;;;24.97;43.76
61488;BME280;47351;53.326;-6.298;2022-07-29T10:32:31;101456.30;;;25.24;43.73
61488;BME280;47351;53.326;-6.298;2022-07-29T10:35:21;101457.12;;;25.47;43.44
61488;BME280;47351;53.326;-6.298;2022-07-29T10:38:07;101454.57;;;25.60;43.57
61488;BME280;47351;53.326;-6.298;2022-07-29T10:40:54;101448.96;;;25.65;43.54
61488;BME280;47351;53.326;-6.298;2022-07-29T10:43:49;101453.90;;;25.57;43.98
61488;BME280;47351;53.326;-6.298;2022-07-29T10:46:23;101457.95;;;25.53;44.08
61488;BME280;47351;53.326;-6.298;2022-07-29T10:49:09;101458.11;;;25.60;44.14
61488;BME280;47351;53.326;-6.298;2022-07-29T10:51:58;101458.67;;;25.48;43.92
61488;BME280;47351;53.326;-6.298;2022-07-29T10:54:47;101457.26;;;25.27;44.19
61488;BME280;47351;53.326;-6.298;2022-07-29T10:57:23;101453.16;;;25.10;44.78
61488;BME280;47351;53.326;-6.298;2022-07-29T11:00:31;101458.50;;;24.79;45.02
61488;BME280;47351;53.326;-6.298;2022-07-29T11:03:05;101461.95;;;24.44;45.38
61488;BME280;47351;53.326;-6.298;2022-07-29T11:06:02;101459.98;;;24.10;46.09
61488;BME280;47351;53.326;-6.298;2022-07-29T11:08:37;101455.22;;;23.62;46.76
61488;BME280;47351;53.326;-6.298;2022-07-29T11:11:31;101457.49;;;23.27;47.36
61488;BME280;47351;53.326;-6.298;2022-07-29T11:14:03;101455.44;;;23.01;48.09
61488;BME280;47351;53.326;-6.298;2022-07-29T11:17:00;101459.65;;;22.90;48.61
61488;BME280;47351;53.326;-6.298;2022-07-29T11:19:36;101452.52;;;22.97;49.26
61488;BME280;47351;53.326;-6.298;2022-07-29T11:22:34;101454.81;;;23.22;49.32
61488;BME280;47351;53.326;-6.298;2022-07-29T11:25:17;101451.06;;;23.56;49.10
61488;BME280;47351;53.326;-6.298;2022-07-29T11:28:16;101454.61;;;23.89;49.17
61488;BME280;47351;53.326;-6.298;2022-07-29T11:30:54;101459.91;;;24.13;48.83
61488;BME280;47351;53.326;-6.298;2022-07-29T11:33:31;101461.30;;;24.29;48.35
61488;BME280;47351;53.326;-6.298;2022-07-29T11:36:22;101458.86;;;24.43;48.19
61488;BME280;47351;53.326;-6.298;2022-07-29T11:39:26;101458.36;;;24.65;47.94
61488;BME280;47351;53.326;-6.298;2022-07-29T11:45:17;101445.86;;;25.58;46.77
61488;BME280;47351;53.326;-6.298;2022-07-29T11:48:17;101438.66;;;25.23;46.56
61488;BME280;47351;53.326;-6.298;2022-07-29T11:51:01;101438.32;;;24.76;47.37
61488;BME280;47351;53.326;-6.298;2022-07-29T11:53:48;101440.70;;;24.34;47.57
61488;BME280;47351;53.326;-6.298;2022-07-29T11:56:22;101442.70;;;23.95;48.15
61488;BME280;47351;53.326;-6.298;2022-07-29T11:59:04;101443.00;;;23.60;48.59
61488;BME280;47351;53.326;-6.298;2022-07-29T12:01:37;101443.07;;;23.27;49.01
61488;BME280;47351;53.326;-6.298;2022-07-29T12:04:51;101439.90;;;22.99;49.68
61488;BME280;47351;53.326;-6.298;2022-07-29T12:07:29;101444.29;;;22.82;50.12
61488;BME280;47351;53.326;-6.298;2022-07-29T12:10:05;101450.83;;;22.74;50.43
61488;BME280;47351;53.326;-6.298;2022-07-29T12:12:53;101452.04;;;22.75;50.63
61488;BME280;47351;53.326;-6.298;2022-07-29T12:15:37;101446.85;;;22.83;50.50
61488;BME280;47351;53.326;-6.298;2022-07-29T12:18:18;101445.05;;;22.89;50.79
61488;BME280;47351;53.326;-6.298;2022-07-29T12:21:00;101445.20;;;23.03;50.76
61488;BME280;47351;53.326;-6.298;2022-07-29T12:23:36;101447.52;;;23.24;50.51
61488;BME280;47351;53.326;-6.298;2022-07-29T12:26:07;101442.77;;;23.57;50.19
61488;BME280;47351;53.326;-6.298;2022-07-29T12:29:03;101444.20;;;24.09;49.39
61488;BME280;47351;53.326;-6.298;2022-07-29T12:31:40;101441.31;;;24.50;48.72
61488;BME280;47351;53.326;-6.298;2022-07-29T12:34:28;101439.53;;;24.76;47.71
61488;BME280;47351;53.326;-6.298;2022-07-29T12:36:59;101436.91;;;25.03;46.47
61488;BME280;47351;53.326;-6.298;2022-07-29T12:39:31;101438.48;;;25.21;46.04
61488;BME280;47351;53.326;-6.298;2022-07-29T12:42:12;101437.84;;;25.34;45.85
61488;BME280;47351;53.326;-6.298;2022-07-29T12:44:49;101431.20;;;25.38;45.58
61488;BME280;47351;53.326;-6.298;2022-07-29T12:47:21;101429.95;;;25.34;45.52
61488;BME280;47351;53.326;-6.298;2022-07-29T12:50:09;101429.58;;;25.22;45.42
61488;BME280;47351;53.326;-6.298;2022-07-29T12:52:41;101424.98;;;25.08;45.63
61488;BME280;47351;53.326;-6.298;2022-07-29T12:55:14;101423.16;;;24.91;45.70
61488;BME280;47351;53.326;-6.298;2022-07-29T12:57:50;101421.13;;;24.74;45.77
61488;BME280;47351;53.326;-6.298;2022-07-29T13:00:25;101425.84;;;24.61;45.92
61488;BME280;47351;53.326;-6.298;2022-07-29T13:02:59;101421.00;;;24.55;46.16
61488;BME280;47351;53.326;-6.298;2022-07-29T13:05:43;101428.95;;;24.53;46.12
61488;BME280;47351;53.326;-6.298;2022-07-29T13:08:18;101429.77;;;24.46;46.14
61488;BME280;47351;53.326;-6.298;2022-07-29T13:10:51;101427.71;;;24.34;46.13
61488;BME280;47351;53.326;-6.298;2022-07-29T13:13:23;101429.92;;;24.29;46.64
61488;BME280;47351;53.326;-6.298;2022-07-29T13:16:07;101431.70;;;24.20;46.35
61488;BME280;47351;53.326;-6.298;2022-07-29T13:18:38;101427.34;;;24.15;46.57
61488;BME280;47351;53.326;-6.298;2022-07-29T13:21:15;101424.84;;;24.19;46.41
61488;BME280;47351;53.326;-6.298;2022-07-29T13:23:49;101425.23;;;24.37;46.04
61488;BME280;47351;53.326;-6.298;2022-07-29T13:26:20;101421.23;;;24.52;45.97
61488;BME280;47351;53.326;-6.298;2022-07-29T13:28:52;101418.40;;;24.60;45.83
61488;BME280;47351;53.326;-6.298;2022-07-29T13:31:23;101418.63;;;24.66;45.86
61488;BME280;47351;53.326;-6.298;2022-07-29T13:33:54;101415.05;;;24.74;45.94
61488;BME280;47351;53.326;-6.298;2022-07-29T13:36:26;101416.26;;;24.79;45.34